Flight Track Log - Related Links

Times and Time Zones

All times are in EDT time to prevent confusion due to time zone crossing. See the FLG4262 flight status page for this flight to view local times or setup timezone preferences in your user account.

Time Position Orientation Groundspeed Altitude Reporting Facility
EDT Latitude Longitude Course Direction KTS MPH feet Rate Location/Type
05:36PM 42.2639 -76.1156 290° West 197 227 7,900  Level Cleveland Center
05:37PM 42.2878 -76.2047 290° West 242 278 10,100 1,694 Climbing Cleveland Center
05:38PM 42.3142 -76.2997 291° West 269 310 11,400 1,935 Climbing Cleveland Center
05:39PM 42.3497 -76.4233 291° West 318 366 14,100 2,419 Climbing Cleveland Center
05:40PM 42.3797 -76.5342 290° West 317 365 16,400 2,032 Climbing Cleveland Center
05:41PM 42.3820 -76.6125 294° West  Level FlightAware Approximate
05:42PM 42.4175 -76.6700 291° West 319 367 18,300  Level Cleveland Center
05:43PM 42.4472 -76.7864 289° West 322 371 19,800 1,355 Climbing Cleveland Center
05:44PM 42.4797 -76.9050 290° West 331 381 21,100 1,104 Climbing Cleveland Center
05:45PM 42.5128 -77.0294 290° West 348 400 22,100 1,008 Climbing Cleveland Center
05:46PM 42.5469 -77.1583 290° West 359 413 23,200 1,065 Climbing Cleveland Center
05:47PM 42.5811 -77.2878 290° West 363 418 24,300 1,161 Climbing Cleveland Center
05:48PM 42.6222 -77.4442 290° West 366 421 25,600 1,113 Climbing Cleveland Center
05:49PM 42.6544 -77.5667 290° West 366 421 26,600 871 Climbing Cleveland Center
05:50PM 42.6883 -77.6956 290° West 366 421 27,400 677 Climbing Cleveland Center
05:51PM 42.7286 -77.8514 289° West 378 435 28,000 290 Climbing Cleveland Center
05:52PM 42.7633 -77.9878 289° West 381 438 28,000  Level Cleveland Center
05:53PM 42.7983 -78.1247 289° West 383 441 28,000  Level Cleveland Center
05:54PM 42.8158 -78.2636 280° West 377 434 28,000  Level Cleveland Center
05:55PM 42.8108 -78.4050 267° West 376 433 28,000  Level Cleveland Center
05:56PM 42.8064 -78.5753 268° West 376 433 28,000  Level Cleveland Center
05:57PM 42.8022 -78.7161 268° West 375 432 28,000  Level Cleveland Center
05:58PM 42.7964 -78.8572 267° West 375 432 28,000  Level Cleveland Center
05:59PM 42.7922 -78.9989 268° West 375 432 28,000  Level Cleveland Center
06:00PM 42.7861 -79.1400 267° West 375 432 28,000  Level Cleveland Center
06:01PM 42.7806 -79.2819 267° West 375 432 28,000  Level Cleveland Center
06:02PM 42.7742 -79.4514 267° West 375 432 28,000  Level Cleveland Center
06:03PM 42.7678 -79.5936 267° West 376 433 28,000  Level Cleveland Center
06:04PM 42.7625 -79.7361 267° West 377 434 28,000  Level Cleveland Center
06:05PM 42.7561 -79.8783 267° West 377 434 28,000  Level Cleveland Center
06:06PM 42.7486 -80.0236 266° West 377 434 28,000  Level Cleveland Center
06:07PM 42.7425 -80.1672 267° West 378 435 28,000  Level Cleveland Center
06:08PM 42.7342 -80.3358 266° West 379 436 28,000  Level Cleveland Center
06:09PM 42.7272 -80.4800 266° West 380 437 28,000 -145 Level Cleveland Center
06:11PM 42.7203 -80.6236 266° West 377 434 27,700 -677 Descending Cleveland Center
06:12PM 42.7136 -80.7742 267° West 393 452 26,600 -1,016 Descending Cleveland Center
06:13PM 42.7039 -80.9183 265° West 388 447 25,600 -1,161 Descending Cleveland Center
06:14PM 42.6883 -81.0569 261° West 371 427 24,200 -1,403 Descending Cleveland Center
06:15PM 42.6725 -81.1911 261° West 359 413 22,700 -1,597 Descending Cleveland Center
06:16PM 42.6536 -81.3533 261° West 369 425 20,900 -1,597 Descending Cleveland Center
06:17PM 42.6392 -81.4861 262° West 358 412 19,400 -1,488 Descending Cleveland Center
06:18PM 42.6236 -81.6150 261° West 346 398 17,800 -1,200 Descending Cleveland Center
06:19PM 42.6081 -81.7411 261° West 341 392 16,900 -919 Descending Cleveland Center
06:20PM 42.5914 -81.8789 261° West 342 394 15,900 -968 Descending Cleveland Center
06:21PM 42.5758 -82.0075 261° West 344 396 14,900 -968 Descending Cleveland Center
06:22PM 42.5606 -82.1353 261° West 344 396 13,900 -1,121 Descending Cleveland Center
06:23PM 42.5453 -82.2456 259° West 345 397 12,900 -1,065 Descending Cleveland Center
06:23PM 42.5447 -82.2625 267° West 345 397 12,800 -684 Descending Cleveland Center
06:24PM 42.5294 -82.3800 260° West 328 377 12,000 -387 Descending Cleveland Center
06:25PM 42.5117 -82.5242 261° West 324 373 12,000 -484 Level Cleveland Center
06:26PM 42.4758 -82.6347 246° West 324 373 11,000 -1,276 Descending Cleveland Center
06:27PM 42.4394 -82.7442 246° West 268 308 9,300 -1,500 Descending Cleveland Center
06:28PM 42.4286 -82.8331 261° West 268 308 8,000 -1,241 Descending Cleveland Center
06:29PM 42.4172 -82.9333 261° West 270 311 6,900 -934 Descending Cleveland Center
06:30PM 42.4261 -83.0108 279° West 202 232 6,100 -439 Descending Cleveland Center
06:31PM 42.4592 -83.0719 306° West 178 205 6,000 -46 Descending Cleveland Center
06:32PM 42.4544 -83.1342 264° West 191 220 6,000 -281 Level Cleveland Center
06:33PM 42.4169 -83.1850 225° Southwest 172 198 5,400 -726 Descending Cleveland Center
06:34PM 42.3811 -83.2150 212° Southwest 175 201 4,500 -984 Descending Cleveland Center
06:35PM 42.3369 -83.2472 208° Southwest 159 183 3,400 -1,026 Descending Cleveland Center
06:36PM 42.2969 -83.2756 208° Southwest 154 177 2,500 -843 Descending Cleveland Center
06:37PM 42.2614 -83.3017 209° Southwest 138 159 1,700 -780 Descending Cleveland Center
06:38PM 42.2281 -83.3278 210° Southwest 134 154 900 -774 Descending Cleveland Center
06:40PM 42.2124 -83.3534 213° Southwest  Level Estimated
06:47PM 42.2124 -83.3534 North  Level Estimated
06:48PM 42.2124 -83.3534 213° Southwest  Level Estimated

Login

Don't have an account? Register now (free) for customized features, flight alerts, and more!